Terminal Aerodrome Forecast
Issued by NWS

Home | Current Version | Previous Version | Text Only | Print | Product List | Glossary On
Versions: 1 2 3 4 5 6 7 8 9 10 11 12 13 14 15 16 17 18 19 20 21 22 23 24 25 26 27 28 29 30 31
000
FTUS44 KOUN 041120
TAFHBR
TAF
KHBR 041120Z 0412/0512 04020G28KT P6SM OVC020
     FM041400 02022G30KT 4SM -FZRAPL OVC015
     FM041600 03020G29KT 2SM PLSN OVC010
     FM042200 02018G27KT 4SM -SN OVC007
     FM050300 03014KT P6SM SCT015 OVC030
     FM051100 36008KT P6SM SCT030 BKN150=

USA.gov is the U.S. government's official web portal to all federal, state and local government web resources and services.